createdAt,value
2023-02-19T00:03:20.870Z,20.20
2023-02-19T00:08:24.259Z,20.10
2023-02-19T00:13:30.338Z,20.10
2023-02-19T00:18:33.756Z,20.10
2023-02-19T00:23:37.628Z,20.10
2023-02-19T00:28:42.347Z,20.20
2023-02-19T00:33:46.475Z,20.20
2023-02-19T00:38:50.834Z,20.20
2023-02-19T00:43:57.017Z,20.20
2023-02-19T00:49:01.271Z,20.20
2023-02-19T00:54:05.925Z,20.20
2023-02-19T00:59:10.783Z,20.20
2023-02-19T01:04:16.513Z,20.20
2023-02-19T01:09:19.954Z,20.20
2023-02-19T01:14:24.691Z,20.20
2023-02-19T01:19:27.977Z,20.20
2023-02-19T01:24:31.335Z,20.10
2023-02-19T01:29:35.996Z,20.10
2023-02-19T01:34:39.245Z,20.10
2023-02-19T01:39:43.263Z,20.00
2023-02-19T01:45:26.348Z,20.00
2023-02-19T01:50:37.986Z,19.90
2023-02-19T01:55:42.276Z,19.90
2023-02-19T02:00:47.624Z,19.90
2023-02-19T02:05:58.132Z,19.90
2023-02-19T02:11:02.001Z,19.90
2023-02-19T02:16:20.838Z,19.90
2023-02-19T02:21:44.574Z,19.90
2023-02-19T02:27:00.789Z,19.90
2023-02-19T02:32:10.478Z,19.90
2023-02-19T02:37:14.710Z,19.90
2023-02-19T02:42:30.055Z,19.90
2023-02-19T02:47:49.718Z,19.80
2023-02-19T02:53:14.915Z,19.80
2023-02-19T02:58:20.492Z,19.70
2023-02-19T03:03:28.486Z,19.60
2023-02-19T03:08:35.655Z,19.50
2023-02-19T03:13:58.367Z,19.50
2023-02-19T03:19:22.671Z,19.50
2023-02-19T03:24:59.874Z,19.50
2023-02-19T03:30:09.337Z,19.40
2023-02-19T03:35:18.306Z,19.40
2023-02-19T03:40:28.480Z,19.40
2023-02-19T03:45:39.677Z,19.40
2023-02-19T03:50:50.269Z,19.40
2023-02-19T03:56:08.746Z,19.30
2023-02-19T04:01:20.950Z,19.40
2023-02-19T04:06:29.022Z,19.30
2023-02-19T04:11:34.266Z,19.30
2023-02-19T04:16:45.368Z,19.30
2023-02-19T04:21:51.852Z,19.30
2023-02-19T04:26:56.194Z,19.30
2023-02-19T04:31:59.535Z,19.30
2023-02-19T04:37:04.511Z,19.30
2023-02-19T04:42:07.980Z,19.20
2023-02-19T04:47:11.249Z,19.20
2023-02-19T04:52:16.236Z,19.20
2023-02-19T04:57:21.208Z,19.10
2023-02-19T05:02:24.597Z,19.10
2023-02-19T05:07:29.796Z,19.00
2023-02-19T05:12:33.302Z,18.90
2023-02-19T05:17:37.029Z,18.80
2023-02-19T05:22:41.708Z,18.80
2023-02-19T05:27:45.087Z,18.70
2023-02-19T05:32:48.331Z,18.70
2023-02-19T05:37:53.054Z,18.60
2023-02-19T05:42:56.356Z,18.60
2023-02-19T05:47:59.873Z,18.60
2023-02-19T05:53:05.498Z,18.60
2023-02-19T05:58:08.828Z,18.60
2023-02-19T06:03:12.131Z,18.60
2023-02-19T06:08:17.645Z,18.60
2023-02-19T06:13:20.914Z,18.60
2023-02-19T06:18:24.703Z,18.60
2023-02-19T06:23:31.057Z,18.60
2023-02-19T06:28:34.382Z,18.50
2023-02-19T06:33:40.498Z,18.60
2023-02-19T06:38:45.329Z,18.50
2023-02-19T06:43:48.763Z,18.50
2023-02-19T06:48:52.259Z,18.50
2023-02-19T06:53:58.373Z,18.40
2023-02-19T06:59:03.734Z,18.30
2023-02-19T07:04:08.646Z,18.30
2023-02-19T07:09:13.496Z,18.20
2023-02-19T07:14:18.310Z,18.30
2023-02-19T07:19:21.847Z,18.20
2023-02-19T07:24:28.677Z,18.20
2023-02-19T07:29:31.945Z,18.30
2023-02-19T07:34:35.208Z,18.20
2023-02-19T07:39:39.956Z,18.20
2023-02-19T07:44:43.630Z,18.10
2023-02-19T07:49:46.904Z,18.20
2023-02-19T07:54:51.552Z,18.00
2023-02-19T07:59:54.933Z,18.00
2023-02-19T08:04:58.300Z,18.00
2023-02-19T08:10:18.381Z,18.00
2023-02-19T08:15:24.654Z,18.00
2023-02-19T08:20:30.500Z,18.00
2023-02-19T08:25:37.614Z,18.50
2023-02-19T08:30:44.546Z,18.10
2023-02-19T08:35:48.131Z,18.00
2023-02-19T08:40:52.766Z,18.10
2023-02-19T08:45:56.739Z,18.10
2023-02-19T08:51:04.012Z,18.20
2023-02-19T08:56:10.023Z,18.20
2023-02-19T09:01:16.487Z,18.30
2023-02-19T09:06:21.510Z,18.40
2023-02-19T09:11:26.199Z,18.40
2023-02-19T09:16:29.697Z,18.40
2023-02-19T09:21:39.112Z,18.50
2023-02-19T09:26:43.756Z,18.60
2023-02-19T09:31:47.260Z,18.60
2023-02-19T09:36:50.864Z,18.70
2023-02-19T09:41:59.499Z,18.80
2023-02-19T09:47:04.923Z,18.80
2023-02-19T09:52:14.298Z,18.90
2023-02-19T09:57:22.478Z,19.00
2023-02-19T10:02:27.760Z,19.10
2023-02-19T10:07:39.858Z,19.30
2023-02-19T10:12:48.534Z,19.40
2023-02-19T10:17:52.935Z,19.80
2023-02-19T10:23:03.045Z,20.20
2023-02-19T10:28:13.653Z,20.60
2023-02-19T10:33:18.235Z,21.00
2023-02-19T10:38:25.058Z,21.20
2023-02-19T10:43:33.940Z,21.40
2023-02-19T10:48:42.404Z,21.60
2023-02-19T10:53:49.615Z,21.70
2023-02-19T10:58:55.531Z,21.90
2023-02-19T11:04:18.594Z,22.00
2023-02-19T11:09:28.683Z,22.20
2023-02-19T11:14:35.511Z,22.20
2023-02-19T11:19:41.440Z,22.30
2023-02-19T11:24:50.662Z,22.40
2023-02-19T11:29:56.072Z,22.40
2023-02-19T11:35:17.865Z,22.40
2023-02-19T11:40:25.837Z,22.40
2023-02-19T11:45:40.090Z,22.30
2023-02-19T11:50:55.169Z,22.30
2023-02-19T11:56:15.040Z,22.20
2023-02-19T12:01:27.637Z,22.10
2023-02-19T12:06:37.434Z,22.10
2023-02-19T12:11:59.580Z,22.20
2023-02-19T12:17:17.334Z,22.50
2023-02-19T12:22:30.935Z,22.60
2023-02-19T12:27:50.571Z,22.70
2023-02-19T12:33:42.796Z,22.90
2023-02-19T12:39:09.574Z,22.80
2023-02-19T12:44:20.189Z,22.60
2023-02-19T12:49:30.555Z,22.20
2023-02-19T12:54:43.844Z,21.90
2023-02-19T12:59:54.010Z,21.70
2023-02-19T13:05:08.643Z,21.50
2023-02-19T13:10:27.799Z,21.40
2023-02-19T13:15:38.076Z,21.20
2023-02-19T13:20:44.833Z,21.10
2023-02-19T13:26:10.430Z,20.90
2023-02-19T13:31:33.655Z,20.70
2023-02-19T13:36:39.260Z,20.50
2023-02-19T13:41:52.082Z,20.30
2023-02-19T13:46:56.261Z,20.20
2023-02-19T13:52:02.767Z,20.10
2023-02-19T13:57:30.580Z,20.00
2023-02-19T14:02:36.380Z,19.90
2023-02-19T14:07:56.720Z,19.80
2023-02-19T14:13:03.654Z,19.70
2023-02-19T14:18:43.500Z,19.70
2023-02-19T14:23:55.756Z,19.60
2023-02-19T14:29:02.974Z,19.60
2023-02-19T14:34:15.458Z,19.50
2023-02-19T14:39:26.165Z,19.40
2023-02-19T14:44:35.933Z,19.30
2023-02-19T14:49:48.191Z,19.20
2023-02-19T14:54:55.738Z,19.20
2023-02-19T15:00:04.492Z,19.10
2023-02-19T15:05:19.334Z,19.00
2023-02-19T15:10:24.712Z,18.90
2023-02-19T15:15:33.418Z,18.80
2023-02-19T15:20:42.552Z,18.80
2023-02-19T15:25:49.574Z,18.70
2023-02-19T15:31:08.889Z,18.60
2023-02-19T15:36:15.905Z,18.40
2023-02-19T15:41:23.564Z,18.20
2023-02-19T15:46:30.880Z,18.10
2023-02-19T15:51:42.786Z,17.90
2023-02-19T15:56:51.506Z,17.90
2023-02-19T16:01:57.442Z,17.90
2023-02-19T16:07:04.558Z,17.90
2023-02-19T16:12:23.235Z,17.90
2023-02-19T16:17:29.641Z,17.80
2023-02-19T16:22:46.440Z,17.80
2023-02-19T16:27:51.467Z,17.70
2023-02-19T16:33:37.808Z,17.60
2023-02-19T16:39:02.121Z,17.40
2023-02-19T16:44:43.809Z,17.30
2023-02-19T16:50:00.601Z,17.30
2023-02-19T16:55:14.804Z,17.20
2023-02-19T17:00:21.722Z,17.20
2023-02-19T17:05:33.165Z,17.10
2023-02-19T17:10:43.408Z,17.00
2023-02-19T17:15:49.367Z,16.90
2023-02-19T17:20:58.377Z,16.80
2023-02-19T17:26:06.835Z,16.70
2023-02-19T17:31:15.239Z,16.60
2023-02-19T17:36:27.644Z,16.50
2023-02-19T17:41:35.365Z,16.40
2023-02-19T17:46:42.238Z,16.30
2023-02-19T17:51:50.697Z,16.20
2023-02-19T17:56:57.270Z,16.20
2023-02-19T18:02:05.543Z,16.10
2023-02-19T18:07:11.814Z,16.10
2023-02-19T18:12:21.624Z,16.00
2023-02-19T18:17:30.662Z,16.00
2023-02-19T18:22:40.777Z,16.00
2023-02-19T18:27:49.428Z,16.00
2023-02-19T18:32:54.981Z,16.00
2023-02-19T18:38:02.268Z,16.00
2023-02-19T18:43:09.340Z,16.00
2023-02-19T18:48:17.430Z,16.00
2023-02-19T18:53:24.462Z,16.10
2023-02-19T18:58:35.763Z,16.10
2023-02-19T19:03:45.726Z,16.10
2023-02-19T19:08:52.051Z,16.10
2023-02-19T19:13:59.681Z,16.10
2023-02-19T19:19:05.478Z,16.10
2023-02-19T19:24:12.282Z,16.10
2023-02-19T19:29:24.181Z,16.20
2023-02-19T19:34:29.593Z,16.20
2023-02-19T19:39:36.039Z,16.20
2023-02-19T19:44:46.573Z,16.30
2023-02-19T19:50:00.318Z,16.30
2023-02-19T19:55:05.914Z,16.30
2023-02-19T20:00:18.309Z,16.40
2023-02-19T20:05:24.363Z,16.50
2023-02-19T20:10:29.883Z,16.50
2023-02-19T20:15:37.818Z,16.60
2023-02-19T20:20:43.166Z,16.60
2023-02-19T20:25:47.656Z,16.60
2023-02-19T20:30:54.801Z,16.60
2023-02-19T20:36:01.044Z,16.60
2023-02-19T20:41:09.205Z,16.60
2023-02-19T20:46:15.923Z,16.60
2023-02-19T20:51:21.703Z,16.60
2023-02-19T20:56:27.164Z,16.60
2023-02-19T21:01:35.143Z,16.60
2023-02-19T21:06:40.060Z,16.60
2023-02-19T21:11:46.324Z,16.60
2023-02-19T21:16:51.863Z,16.50
2023-02-19T21:21:56.620Z,16.50
2023-02-19T21:27:01.154Z,16.40
2023-02-19T21:32:06.338Z,16.30
2023-02-19T21:37:10.756Z,16.20
2023-02-19T21:42:14.184Z,16.20
2023-02-19T21:47:19.821Z,16.10
2023-02-19T21:52:28.445Z,16.00
2023-02-19T21:57:33.591Z,15.90
2023-02-19T22:02:38.548Z,15.80
2023-02-19T22:07:41.870Z,15.70
2023-02-19T22:12:45.559Z,15.70
2023-02-19T22:17:50.295Z,15.60
2023-02-19T22:22:53.616Z,15.50
2023-02-19T22:27:58.922Z,15.50
2023-02-19T22:33:04.801Z,15.40
2023-02-19T22:38:08.119Z,15.30
2023-02-19T22:43:12.370Z,15.30
2023-02-19T22:48:25.182Z,15.20
2023-02-19T22:53:33.140Z,15.20
2023-02-19T22:58:36.653Z,15.10
2023-02-19T23:03:48.798Z,15.10
2023-02-19T23:08:52.774Z,15.10
2023-02-19T23:13:56.397Z,15.00
2023-02-19T23:19:01.196Z,15.00
2023-02-19T23:24:05.693Z,15.00
2023-02-19T23:29:09.395Z,14.90
2023-02-19T23:34:14.689Z,14.90
2023-02-19T23:39:20.412Z,14.80
2023-02-19T23:44:25.888Z,14.80
2023-02-19T23:49:30.662Z,14.70
2023-02-19T23:54:33.985Z,14.70
2023-02-19T23:59:37.275Z,14.60
